Time;durP1;ratioP1;P1;durP2;ratioP2;P2;SDS_P1;SDS_P2;PMS_P1;PMS_P2;Temp;Humidity;BMP_temperature;BMP_pressure;BME280_temperature;BME280_humidity;BME280_pressure;Samples;Min_cycle;Max_cycle;Signal;HPM_P1;HPM_P2
2021/11/26 00:00:32;;;;;;;2.95;2.60;;;;;;;12.76;69.03;101316.47;4848966;29;102519;-54
2021/11/26 00:02:58;;;;;;;3.22;2.65;;;;;;;12.78;69.26;101308.00;4840838;28;102669;-53
2021/11/26 00:05:25;;;;;;;3.15;2.70;;;;;;;12.77;69.29;101311.84;4856600;29;103524;-53
2021/11/26 00:07:51;;;;;;;3.10;2.85;;;;;;;12.77;68.90;101306.38;4835131;29;103974;-53
2021/11/26 00:10:19;;;;;;;5.00;2.90;;;;;;;12.78;69.29;101297.09;4844244;29;102369;-53
2021/11/26 00:13:00;;;;;;;4.80;2.83;;;;;;;12.77;69.17;101295.44;4828903;29;102210;-53
2021/11/26 00:15:47;;;;;;;3.40;2.70;;;;;;;12.77;69.12;101284.53;4845078;28;102671;-53
2021/11/26 00:18:18;;;;;;;4.43;2.65;;;;;;;12.75;69.23;101285.59;4836130;29;103953;-53
2021/11/26 00:20:46;;;;;;;3.47;2.70;;;;;;;12.77;69.09;101290.00;4840510;28;102041;-54
2021/11/26 00:23:12;;;;;;;3.20;2.47;;;;;;;12.75;69.06;101282.88;4842921;29;102306;-53
2021/11/26 00:25:39;;;;;;;2.83;2.53;;;;;;;12.77;68.99;101290.00;4843049;28;102205;-53
2021/11/26 00:28:07;;;;;;;2.92;2.40;;;;;;;12.75;69.23;101282.88;4839929;29;103902;-53
2021/11/26 00:30:34;;;;;;;3.13;2.53;;;;;;;12.75;69.04;101274.66;4842721;29;102082;-54
2021/11/26 00:33:01;;;;;;;3.38;2.38;;;;;;;12.76;69.01;101278.22;4831384;28;102274;-53
2021/11/26 00:35:29;;;;;;;3.65;2.67;;;;;;;12.77;69.17;101273.59;4843105;29;102548;-53
2021/11/26 00:37:56;;;;;;;3.80;2.38;;;;;;;12.77;69.13;101262.69;4840679;29;103774;-53
2021/11/26 00:40:22;;;;;;;2.58;2.38;;;;;;;12.75;69.17;101261.00;4838954;28;102366;-53
2021/11/26 00:42:49;;;;;;;4.00;2.25;;;;;;;12.75;69.04;101255.56;4843396;28;102554;-53
2021/11/26 00:45:17;;;;;;;3.35;2.55;;;;;;;12.75;69.29;101260.19;4845000;28;103066;-53
2021/11/26 00:47:44;;;;;;;2.57;2.00;;;;;;;12.75;69.15;101250.09;4841910;28;103894;-53
2021/11/26 00:50:13;;;;;;;4.10;2.20;;;;;;;12.75;69.13;101255.56;4839067;29;102363;-53
2021/11/26 00:52:39;;;;;;;2.15;1.85;;;;;;;12.76;68.98;101250.91;4839847;29;102765;-53
2021/11/26 00:55:07;;;;;;;2.60;2.40;;;;;;;12.74;69.01;101240.28;4846715;28;102192;-53
2021/11/26 00:57:34;;;;;;;2.10;1.90;;;;;;;12.74;69.11;101242.19;4834582;29;103755;-54
2021/11/26 01:00:00;;;;;;;2.38;1.92;;;;;;;12.75;69.04;101250.09;4843303;28;102233;-53
2021/11/26 01:02:29;;;;;;;2.75;2.30;;;;;;;12.74;69.13;101248.47;4846211;28;102323;-53
2021/11/26 01:04:55;;;;;;;2.30;2.10;;;;;;;12.75;69.04;101250.09;4849161;29;103114;-53
2021/11/26 01:07:22;;;;;;;3.20;2.47;;;;;;;12.75;68.99;101250.09;4842252;28;103872;-53
2021/11/26 01:09:48;;;;;;;2.58;1.92;;;;;;;12.73;68.89;101249.56;4841293;29;102203;-53
2021/11/26 01:12:15;;;;;;;2.00;1.77;;;;;;;12.75;69.03;101250.09;4836812;29;102171;-53
2021/11/26 01:14:41;;;;;;;2.95;2.28;;;;;;;12.74;69.07;101247.66;4844292;29;102270;-53
2021/11/26 01:17:08;;;;;;;2.33;1.70;;;;;;;12.74;69.09;101242.19;4842735;29;103727;-53
2021/11/26 01:19:39;;;;;;;3.08;1.80;;;;;;;12.74;69.01;101242.19;4851970;29;102488;-53
2021/11/26 01:22:05;;;;;;;2.97;2.17;;;;;;;12.75;69.13;101235.63;4842184;29;102323;-53
2021/11/26 01:24:32;;;;;;;1.83;1.52;;;;;;;12.75;68.91;101221.97;4844120;29;102321;-54
2021/11/26 01:27:01;;;;;;;2.80;1.98;;;;;;;12.74;68.94;101220.34;4841593;29;103923;-53
2021/11/26 01:29:28;;;;;;;2.15;1.70;;;;;;;12.74;68.95;101220.34;4842416;28;102414;-53
2021/11/26 01:31:54;;;;;;;2.20;1.77;;;;;;;12.74;69.01;101226.63;4849497;29;102178;-54
2021/11/26 01:34:20;;;;;;;2.00;1.80;;;;;;;12.74;69.09;101223.06;4849829;28;102825;-53
2021/11/26 01:36:50;;;;;;;2.05;1.80;;;;;;;12.74;69.11;101229.34;4824317;29;103898;-53
2021/11/26 01:39:17;;;;;;;2.83;1.83;;;;;;;12.74;69.11;101223.88;4818674;29;102143;-53
2021/11/26 01:41:45;;;;;;;2.08;1.80;;;;;;;12.73;68.90;101230.44;4822496;29;102393;-52
2021/11/26 01:44:12;;;;;;;1.80;1.70;;;;;;;12.75;68.90;101228.25;4816064;29;102403;-53
2021/11/26 01:46:39;;;;;;;3.05;2.00;;;;;;;12.75;69.37;101222.78;4824231;29;104105;-53
2021/11/26 01:49:05;;;;;;;2.03;1.70;;;;;;;12.77;68.62;101227.16;4830381;29;102908;-53
2021/11/26 01:51:33;;;;;;;2.60;1.90;;;;;;;12.75;68.88;101227.44;4822425;29;103039;-53
2021/11/26 01:54:01;;;;;;;2.40;1.70;;;;;;;12.74;69.17;101215.69;4831940;29;103277;-53
2021/11/26 01:56:28;;;;;;;2.10;1.45;;;;;;;12.74;68.84;101215.69;4822424;29;104241;-53
2021/11/26 01:58:54;;;;;;;2.85;1.75;;;;;;;12.75;69.02;101217.31;4822736;29;102230;-53
2021/11/26 02:01:22;;;;;;;2.10;1.58;;;;;;;12.75;69.15;101211.84;4813215;29;103728;-53
2021/11/26 02:03:48;;;;;;;2.22;1.67;;;;;;;12.75;69.01;101209.13;4812378;29;102305;-53
2021/11/26 02:06:15;;;;;;;1.60;1.50;;;;;;;12.75;69.10;101211.84;4835897;29;103862;-53
2021/11/26 02:08:42;;;;;;;2.25;1.60;;;;;;;12.75;68.77;101206.38;4822032;29;102721;-53
2021/11/26 02:11:10;;;;;;;1.58;1.48;;;;;;;12.75;69.02;101200.13;4820637;29;102638;-53
2021/11/26 02:13:37;;;;;;;2.25;1.80;;;;;;;12.75;68.88;101195.47;4824045;29;102263;-53
2021/11/26 02:16:04;;;;;;;3.50;1.50;;;;;;;12.74;69.11;101193.03;4822213;29;103954;-53
2021/11/26 02:18:31;;;;;;;2.28;1.40;;;;;;;12.74;69.06;101191.09;4831129;29;102410;-53
2021/11/26 02:20:59;;;;;;;1.70;1.50;;;;;;;12.73;68.93;101189.47;4820873;29;102415;-53
2021/11/26 02:23:25;;;;;;;1.45;1.30;;;;;;;12.74;68.96;101196.56;4832076;29;102699;-53
2021/11/26 02:25:52;;;;;;;2.13;1.92;;;;;;;12.73;69.02;101197.66;4831625;29;104249;-53
2021/11/26 02:28:19;;;;;;;2.08;1.30;;;;;;;12.74;69.04;101204.75;4837222;29;102279;-53
2021/11/26 02:30:46;;;;;;;1.92;1.73;;;;;;;12.73;68.90;101208.59;4818793;29;102880;-53
2021/11/26 02:33:16;;;;;;;2.47;1.30;;;;;;;12.75;69.05;101203.66;4824033;29;102424;-53
2021/11/26 02:35:45;;;;;;;2.03;1.65;;;;;;;12.75;68.97;101209.13;4816669;29;104122;-53
2021/11/26 02:38:13;;;;;;;1.45;1.35;;;;;;;12.75;68.91;101202.84;4812147;29;103915;-53
2021/11/26 02:40:42;;;;;;;2.57;1.40;;;;;;;12.74;69.03;101191.09;4822710;29;102407;-53
2021/11/26 02:43:09;;;;;;;2.45;1.40;;;;;;;12.74;69.06;101193.03;4819715;29;102550;-53
2021/11/26 02:45:36;;;;;;;1.48;1.17;;;;;;;12.74;69.09;101182.09;4821348;29;103953;-53
2021/11/26 02:48:03;;;;;;;1.80;1.20;;;;;;;12.74;68.91;101179.38;4822719;29;102384;-53
2021/11/26 02:50:32;;;;;;;2.72;1.38;;;;;;;12.75;68.98;101178.28;4818597;29;102239;-53
2021/11/26 02:53:00;;;;;;;3.20;1.77;;;;;;;12.75;68.90;101189.19;4821437;29;102204;-53
2021/11/26 02:55:30;;;;;;;2.08;1.27;;;;;;;12.74;68.99;101176.63;4817366;29;104033;-53
2021/11/26 02:57:57;;;;;;;1.58;1.40;;;;;;;12.73;68.95;101175.81;4817590;29;102109;-53
2021/11/26 03:00:25;;;;;;;1.27;1.17;;;;;;;12.74;68.96;101165.72;4810238;29;102401;-53
2021/11/26 03:02:52;;;;;;;1.30;1.20;;;;;;;12.75;68.97;101170.88;4819601;29;102946;-54
2021/11/26 03:05:19;;;;;;;1.48;1.20;;;;;;;12.74;68.99;101171.19;4824296;29;103955;-53
2021/11/26 03:07:48;;;;;;;2.30;1.20;;;;;;;12.73;68.83;101175.81;4824125;29;102349;-53
2021/11/26 03:10:18;;;;;;;1.48;1.30;;;;;;;12.75;68.96;101176.34;4821333;29;101929;-53
2021/11/26 03:12:50;;;;;;;1.40;1.30;;;;;;;12.75;68.93;101179.09;4819913;29;102623;-53
2021/11/26 03:15:18;;;;;;;1.27;1.10;;;;;;;12.75;68.94;101179.09;4821286;29;104203;-53
2021/11/26 03:17:45;;;;;;;1.27;1.17;;;;;;;12.75;68.59;101181.00;4828412;29;102513;-53
2021/11/26 03:20:12;;;;;;;1.73;1.20;;;;;;;12.75;68.92;101187.28;4822075;29;102042;-54
2021/11/26 03:22:39;;;;;;;2.00;1.20;;;;;;;12.75;69.05;101172.81;4821667;29;105288;-53
2021/11/26 03:25:07;;;;;;;1.55;1.20;;;;;;;12.77;68.97;101175.28;4822127;29;103913;-53
2021/11/26 03:27:35;;;;;;;1.63;1.20;;;;;;;12.75;68.91;101178.28;4826707;29;102249;-53
2021/11/26 03:30:04;;;;;;;3.17;1.40;;;;;;;12.75;69.04;101173.63;4826307;29;102185;-53
2021/11/26 03:32:30;;;;;;;1.60;1.25;;;;;;;12.75;68.86;101168.16;4829119;29;102261;-53
2021/11/26 03:34:57;;;;;;;1.48;1.00;;;;;;;12.75;68.91;101162.69;4827477;29;104071;-53
2021/11/26 03:37:23;;;;;;;1.85;1.20;;;;;;;12.74;68.88;101161.06;4822332;29;102410;-54
2021/11/26 03:39:50;;;;;;;1.63;0.95;;;;;;;12.75;68.83;101164.63;4821172;29;102234;-53
2021/11/26 03:42:17;;;;;;;1.58;1.15;;;;;;;12.77;69.13;101158.88;4827129;29;102599;-56
2021/11/26 03:44:43;;;;;;;1.30;1.00;;;;;;;12.75;68.96;101168.16;4821336;29;102735;-53
2021/11/26 03:47:12;;;;;;;1.27;0.90;;;;;;;12.75;69.03;101165.44;4831691;29;102364;-53
2021/11/26 03:49:38;;;;;;;2.55;1.15;;;;;;;12.77;68.90;101175.28;4815531;29;102499;-53
2021/11/26 03:52:05;;;;;;;1.35;1.23;;;;;;;12.77;68.98;101178.00;4819075;29;102872;-53
2021/11/26 03:54:32;;;;;;;1.10;0.93;;;;;;;12.78;69.02;101176.91;4814769;29;103769;-53
2021/11/26 03:56:58;;;;;;;1.67;1.20;;;;;;;12.77;68.88;101172.53;4816598;29;102727;-53
2021/11/26 03:59:25;;;;;;;1.10;1.00;;;;;;;12.77;68.83;101175.28;4821567;29;102380;-53
2021/11/26 04:01:51;;;;;;;1.02;0.90;;;;;;;12.77;68.99;101164.34;4820179;29;102227;-53
2021/11/26 04:04:19;;;;;;;2.42;1.08;;;;;;;12.78;69.00;101155.06;4821371;29;104018;-53
2021/11/26 04:06:45;;;;;;;1.17;0.98;;;;;;;12.77;68.91;101161.63;4820117;29;103255;-53
2021/11/26 04:09:12;;;;;;;2.08;1.20;;;;;;;12.78;69.06;101163.25;4820534;29;102115;-53
2021/11/26 04:11:38;;;;;;;1.73;1.10;;;;;;;12.77;68.80;101158.88;4821816;29;102581;-53
2021/11/26 04:14:05;;;;;;;1.48;1.10;;;;;;;12.78;68.89;101165.97;4831220;29;103985;-53
2021/11/26 04:16:33;;;;;;;1.67;1.30;;;;;;;12.78;68.99;101164.06;4819382;29;103919;-53
2021/11/26 04:19:00;;;;;;;;;;;;;;;12.78;68.86;101155.06;4825252;29;103200;-53
2021/11/26 04:21:28;;;;;;;1.10;0.98;;;;;;;12.78;68.98;101155.06;4823951;29;102201;-53
2021/11/26 04:23:55;;;;;;;2.03;1.20;;;;;;;12.78;69.10;101155.06;4824954;29;103681;-53
2021/11/26 04:26:22;;;;;;;1.30;1.00;;;;;;;12.78;68.99;101155.06;4819738;29;102740;-53
2021/11/26 04:28:48;;;;;;;1.55;1.27;;;;;;;12.78;69.08;101149.59;4827092;29;102183;-53
2021/11/26 04:31:15;;;;;;;1.50;1.23;;;;;;;12.79;68.97;101151.22;4823445;29;102624;-53
2021/11/26 04:33:41;;;;;;;1.77;1.27;;;;;;;12.79;69.04;101148.50;4823656;29;104042;-53
2021/11/26 04:36:08;;;;;;;1.55;1.17;;;;;;;12.79;69.08;101151.22;4814784;29;102454;-53
2021/11/26 04:38:36;;;;;;;1.70;1.40;;;;;;;12.79;68.96;101156.69;4816036;29;102187;-53
2021/11/26 04:41:02;;;;;;;1.60;1.35;;;;;;;12.79;69.13;101151.22;4824359;29;102506;-53
2021/11/26 04:43:29;;;;;;;1.80;1.35;;;;;;;12.78;68.99;101155.06;4839039;29;104056;-53
2021/11/26 04:45:55;;;;;;;1.70;1.25;;;;;;;12.79;68.99;101156.69;4823766;29;102589;-53
2021/11/26 04:48:24;;;;;;;1.73;1.20;;;;;;;12.79;68.92;101149.31;4818979;29;102375;-53
2021/11/26 04:50:52;;;;;;;1.70;1.15;;;;;;;12.79;69.00;101148.50;4824689;29;102495;-53
2021/11/26 04:53:19;;;;;;;1.90;1.10;;;;;;;12.79;69.07;101140.31;4823758;29;103992;-53
2021/11/26 04:55:49;;;;;;;1.60;1.00;;;;;;;12.80;69.06;101136.47;4822191;29;102312;-53
2021/11/26 04:58:16;;;;;;;1.70;1.10;;;;;;;12.79;69.62;101140.31;4820264;29;102502;-53
2021/11/26 05:00:43;;;;;;;1.75;1.20;;;;;;;12.79;69.11;101138.38;4818269;29;102507;-53
2021/11/26 05:03:09;;;;;;;2.95;1.23;;;;;;;12.80;68.98;101141.94;4812538;29;107847;-53
2021/11/26 05:05:36;;;;;;;1.63;1.15;;;;;;;12.80;68.98;101131.00;4814924;29;102188;-53
2021/11/26 05:08:03;;;;;;;1.48;1.13;;;;;;;12.80;69.03;101131.81;4822177;29;102005;-53
2021/11/26 05:10:31;;;;;;;0.98;0.82;;;;;;;12.79;69.07;101124.72;4823725;29;102554;-53
2021/11/26 05:13:00;;;;;;;1.67;1.23;;;;;;;12.79;68.87;101122.00;4822368;29;103900;-53
2021/11/26 05:15:29;;;;;;;1.98;1.33;;;;;;;12.80;69.08;101131.81;4823850;29;102317;-53
2021/11/26 05:17:58;;;;;;;1.88;1.45;;;;;;;12.79;68.95;101130.19;4822354;29;102155;-53
2021/11/26 05:20:26;;;;;;;2.35;1.08;;;;;;;12.80;68.93;101136.47;4815442;29;102383;-53
2021/11/26 05:22:53;;;;;;;1.10;1.00;;;;;;;12.80;69.27;101136.47;4822452;29;103232;-53
2021/11/26 05:25:21;;;;;;;1.73;1.20;;;;;;;12.80;68.80;101137.28;4824256;29;102088;-53
2021/11/26 05:27:48;;;;;;;2.50;1.42;;;;;;;12.81;68.91;101129.94;4820442;29;102443;-53
2021/11/26 05:30:17;;;;;;;1.50;1.30;;;;;;;12.81;69.07;101143.59;4823128;29;103593;-53
2021/11/26 05:32:44;;;;;;;1.53;1.10;;;;;;;12.81;68.84;101132.66;4818053;29;104262;-54
2021/11/26 05:35:12;;;;;;;3.50;1.60;;;;;;;12.81;68.98;101127.19;4826277;29;102709;-53
2021/11/26 05:37:40;;;;;;;1.67;1.38;;;;;;;12.80;69.04;101118.16;4832330;29;103229;-53
2021/11/26 05:40:10;;;;;;;1.90;1.27;;;;;;;12.80;69.01;101115.44;4830625;29;102243;-53
2021/11/26 05:42:37;;;;;;;2.25;1.17;;;;;;;12.80;68.90;101115.44;4817063;29;104025;-53
2021/11/26 05:45:05;;;;;;;1.95;0.98;;;;;;;12.80;69.06;101118.16;4819735;29;102253;-53
2021/11/26 05:47:33;;;;;;;2.38;1.50;;;;;;;12.81;69.00;101122.56;4809363;29;102842;-53
2021/11/26 05:49:59;;;;;;;2.50;1.17;;;;;;;12.82;69.05;101131.56;4820976;29;105246;-53
2021/11/26 05:52:26;;;;;;;1.35;1.20;;;;;;;12.81;69.07;101132.66;4817390;29;104080;-53
2021/11/26 05:54:52;;;;;;;1.50;1.00;;;;;;;12.80;68.94;101126.34;4816952;29;102544;-53
2021/11/26 05:57:19;;;;;;;1.98;1.30;;;;;;;12.82;69.00;101134.28;4821693;29;102239;-53
2021/11/26 05:59:46;;;;;;;2.60;1.20;;;;;;;12.81;68.98;101138.94;4827662;29;102163;-53
2021/11/26 06:02:12;;;;;;;1.55;1.13;;;;;;;12.82;69.00;101134.28;4816315;29;103950;-53
2021/11/26 06:04:40;;;;;;;2.88;1.17;;;;;;;12.83;69.07;101133.19;4821035;29;102199;-53
2021/11/26 06:07:06;;;;;;;2.27;1.43;;;;;;;12.82;68.92;101123.38;4814147;29;102611;-53
2021/11/26 06:09:33;;;;;;;2.72;1.80;;;;;;;12.83;69.10;101125.00;4822469;29;102200;-53
2021/11/26 06:12:00;;;;;;;2.60;1.60;;;;;;;12.82;69.06;101113.25;4817922;29;104242;-53
2021/11/26 06:14:26;;;;;;;2.83;1.20;;;;;;;12.83;68.97;101119.53;4822156;29;102213;-53
2021/11/26 06:16:53;;;;;;;2.72;1.42;;;;;;;12.83;69.03;101103.16;4819360;29;102821;-53
2021/11/26 06:19:19;;;;;;;3.08;1.77;;;;;;;12.83;69.07;101108.59;4820332;29;103265;-53
2021/11/26 06:21:47;;;;;;;2.75;1.20;;;;;;;12.84;68.99;101104.78;4820754;29;103901;-53
2021/11/26 06:24:14;;;;;;;3.88;1.40;;;;;;;12.83;69.10;101116.81;4824586;29;102363;-53
2021/11/26 06:26:40;;;;;;;2.00;1.20;;;;;;;12.85;69.29;101117.34;4809229;29;102143;-53
2021/11/26 06:29:07;;;;;;;4.35;1.27;;;;;;;12.83;69.25;101114.06;4822351;29;102402;-53
2021/11/26 06:31:33;;;;;;;2.00;1.40;;;;;;;12.85;69.14;101118.16;4819936;29;104234;-53
2021/11/26 06:34:00;;;;;;;3.20;1.40;;;;;;;12.85;69.12;101109.97;4824731;29;103132;-53
2021/11/26 06:36:26;;;;;;;2.35;1.55;;;;;;;12.86;69.09;101110.78;4822859;29;102274;-54
2021/11/26 06:38:54;;;;;;;2.45;1.52;;;;;;;12.85;69.23;101109.16;4816561;29;102546;-53
2021/11/26 06:41:20;;;;;;;2.58;1.50;;;;;;;12.86;69.41;101110.78;4800591;29;105066;-53
2021/11/26 06:43:47;;;;;;;2.72;1.50;;;;;;;12.86;69.10;101114.34;4799683;29;104136;-53
2021/11/26 06:46:14;;;;;;;1.77;1.38;;;;;;;12.87;69.10;101112.41;4803978;29;102950;-53
2021/11/26 06:48:40;;;;;;;1.58;1.20;;;;;;;12.87;69.25;101109.69;4809525;29;102538;-53
2021/11/26 06:51:07;;;;;;;4.38;1.50;;;;;;;12.87;69.20;101115.16;4820925;29;103738;-53
2021/11/26 06:53:34;;;;;;;2.85;1.63;;;;;;;12.87;69.12;101106.94;4821200;29;105295;-52
2021/11/26 06:56:02;;;;;;;2.17;1.50;;;;;;;12.87;69.25;101112.41;4819219;29;102186;-53
2021/11/26 06:58:29;;;;;;;2.20;1.47;;;;;;;12.87;69.20;101112.41;4821735;29;102050;-53
2021/11/26 07:00:55;;;;;;;3.65;1.50;;;;;;;12.88;69.03;101116.81;4810842;29;104126;-53
2021/11/26 07:03:22;;;;;;;2.38;1.92;;;;;;;12.88;69.28;101111.34;4809490;29;106802;-53
2021/11/26 07:05:48;;;;;;;2.67;1.95;;;;;;;12.87;69.16;101113.22;4812397;29;102242;-53
2021/11/26 07:08:19;;;;;;;2.90;1.50;;;;;;;12.87;69.15;101115.97;4815842;29;102326;-53
2021/11/26 07:10:46;;;;;;;3.25;1.98;;;;;;;12.88;69.27;101111.34;4815673;29;103763;-53
2021/11/26 07:13:14;;;;;;;2.25;1.83;;;;;;;12.88;69.15;101120.34;4813773;29;102101;-53
2021/11/26 07:15:41;;;;;;;2.72;1.83;;;;;;;12.88;69.11;101114.06;4830157;29;103666;-53
2021/11/26 07:18:09;;;;;;;4.13;1.60;;;;;;;12.88;69.15;101108.59;4818926;29;102183;-53
2021/11/26 07:20:36;;;;;;;2.08;1.48;;;;;;;12.87;69.16;101104.22;4811276;29;103930;-53
2021/11/26 07:23:03;;;;;;;4.13;1.80;;;;;;;12.88;69.04;101106.69;4816298;29;102969;-53
2021/11/26 07:25:29;;;;;;;5.50;1.75;;;;;;;12.86;69.15;101097.13;4816813;29;103658;-53
2021/11/26 07:27:56;;;;;;;5.15;2.58;;;;;;;12.85;69.17;101098.22;4819258;29;102208;-53
2021/11/26 07:30:25;;;;;;;3.38;1.88;;;;;;;12.85;69.04;101095.50;4815979;29;103971;-53
2021/11/26 07:32:51;;;;;;;3.63;2.00;;;;;;;12.85;68.92;101095.50;4815763;29;102449;-53
2021/11/26 07:35:18;;;;;;;5.55;2.28;;;;;;;12.85;69.07;101095.50;4821093;29;103443;-53
2021/11/26 07:37:44;;;;;;;6.28;2.35;;;;;;;12.84;69.04;101105.63;4820585;29;102352;-53
2021/11/26 07:40:12;;;;;;;7.03;1.83;;;;;;;12.84;68.96;101100.16;4812662;29;103953;-53
2021/11/26 07:42:39;;;;;;;5.88;2.17;;;;;;;12.84;69.06;101099.31;4821593;29;102039;-53
2021/11/26 07:45:07;;;;;;;8.63;2.33;;;;;;;12.83;69.10;101100.41;4821097;29;102221;-53
2021/11/26 07:47:36;;;;;;;;;;;;;;;12.82;69.01;101106.97;4821161;29;102614;-53
2021/11/26 07:50:08;;;;;;;3.42;2.30;;;;;;;12.83;68.76;101105.88;4816567;29;103930;-53
2021/11/26 07:52:36;;;;;;;2.88;1.80;;;;;;;12.82;68.64;101096.88;4819218;29;102338;-53
2021/11/26 07:55:03;;;;;;;6.65;2.17;;;;;;;12.81;68.98;101097.16;4820929;28;102165;-53
2021/11/26 07:57:30;;;;;;;4.60;2.45;;;;;;;12.82;69.19;101101.50;4820053;29;102278;-53
2021/11/26 07:59:56;;;;;;;5.95;2.75;;;;;;;12.81;68.77;101105.34;4820599;29;103876;-53
2021/11/26 08:02:23;;;;;;;4.85;2.30;;;;;;;12.80;68.87;101098.22;4825706;29;102367;-53
2021/11/26 08:04:50;;;;;;;4.88;2.05;;;;;;;12.82;68.90;101096.88;4824747;29;102107;-53
2021/11/26 08:07:17;;;;;;;4.10;2.13;;;;;;;12.81;68.77;101099.88;4822567;29;102696;-53
2021/11/26 08:09:43;;;;;;;4.57;2.13;;;;;;;12.82;68.82;101106.97;4823182;29;104161;-53
2021/11/26 08:12:10;;;;;;;3.58;1.92;;;;;;;12.81;68.93;101100.69;4828624;29;102089;-52
2021/11/26 08:14:36;;;;;;;5.28;2.40;;;;;;;12.82;68.75;101106.97;4828542;29;102031;-53
2021/11/26 08:17:04;;;;;;;3.45;2.17;;;;;;;12.83;68.92;101100.41;4826780;29;102644;-53
2021/11/26 08:19:32;;;;;;;3.10;2.20;;;;;;;12.83;68.84;101098.50;4823590;29;103699;-53
2021/11/26 08:22:00;;;;;;;5.05;1.90;;;;;;;12.83;68.79;101097.69;4825810;29;102702;-53
2021/11/26 08:24:27;;;;;;;5.93;2.30;;;;;;;12.83;68.93;101103.16;4820778;29;102220;-53
2021/11/26 08:26:55;;;;;;;4.40;2.22;;;;;;;12.83;68.87;101092.22;4824187;29;103632;-53
2021/11/26 08:29:22;;;;;;;2.63;2.15;;;;;;;12.83;68.77;101097.69;4830870;29;104004;-53
2021/11/26 08:31:48;;;;;;;3.20;2.30;;;;;;;12.83;68.68;101092.22;4827174;29;102045;-53
2021/11/26 08:34:15;;;;;;;3.63;2.35;;;;;;;12.83;68.77;101094.94;4825542;29;102107;-53
2021/11/26 08:36:42;;;;;;;6.03;2.20;;;;;;;12.82;68.78;101085.94;4825171;29;102355;-53
2021/11/26 08:39:16;;;;;;;4.30;2.10;;;;;;;12.83;68.77;101086.75;4822463;29;104071;-53
2021/11/26 08:41:43;;;;;;;3.85;2.13;;;;;;;12.82;68.88;101072.28;4824417;29;102148;-53
2021/11/26 08:44:10;;;;;;;4.28;2.17;;;;;;;12.82;68.76;101052.34;4821942;29;102475;-53
2021/11/26 08:46:36;;;;;;;3.72;1.75;;;;;;;12.83;68.73;101062.16;4824164;29;102564;-53
2021/11/26 08:49:03;;;;;;;4.22;2.10;;;;;;;12.82;68.62;101049.63;4821638;29;104229;-53
2021/11/26 08:51:34;;;;;;;2.58;2.20;;;;;;;12.83;68.80;101045.78;4823574;29;102056;-53
2021/11/26 08:54:01;;;;;;;2.72;2.00;;;;;;;12.83;68.77;101021.19;4824514;29;102212;-53
2021/11/26 08:56:29;;;;;;;3.50;2.45;;;;;;;12.82;68.57;101019.56;4827496;29;102160;-53
2021/11/26 08:58:57;;;;;;;3.83;2.05;;;;;;;12.83;68.93;101026.66;4824173;29;103319;-53
2021/11/26 09:01:23;;;;;;;3.05;2.22;;;;;;;12.83;68.67;101013.00;4831554;29;102394;-53
2021/11/26 09:03:50;;;;;;;3.53;2.10;;;;;;;12.82;68.65;101017.66;4824067;29;104031;-53
2021/11/26 09:06:18;;;;;;;2.25;2.10;;;;;;;12.82;68.53;101008.66;4818761;29;102473;-53
2021/11/26 09:08:44;;;;;;;2.50;2.22;;;;;;;12.82;68.67;101004.00;4818056;29;104150;-53
2021/11/26 09:11:13;;;;;;;3.70;2.17;;;;;;;12.83;68.60;101010.28;4820747;29;102757;-53
2021/11/26 09:13:40;;;;;;;3.97;2.03;;;;;;;12.82;68.73;100995.81;4821299;29;102049;-53
2021/11/26 09:16:07;;;;;;;4.30;1.90;;;;;;;12.81;68.41;100986.00;4823113;29;102461;-53
2021/11/26 09:18:33;;;;;;;3.33;2.55;;;;;;;12.81;68.71;100980.53;4824091;29;103925;-52
2021/11/26 09:21:00;;;;;;;3.65;2.03;;;;;;;12.82;68.34;100986.81;4832920;29;102507;-53
2021/11/26 09:23:27;;;;;;;3.78;2.10;;;;;;;12.82;68.44;100986.81;4817518;29;102377;-53
2021/11/26 09:25:55;;;;;;;3.17;2.20;;;;;;;12.82;68.58;100981.34;4823468;29;102703;-52
2021/11/26 09:28:22;;;;;;;4.30;2.33;;;;;;;12.82;68.50;100975.88;4822950;29;107567;-55
2021/11/26 09:30:50;;;;;;;3.22;2.28;;;;;;;12.81;68.77;100971.53;4822513;29;102180;-53
2021/11/26 09:33:19;;;;;;;2.63;1.97;;;;;;;12.82;68.44;100970.41;4821647;29;102933;-53
2021/11/26 09:35:46;;;;;;;2.42;2.05;;;;;;;12.81;68.67;100964.13;4829700;29;102235;-53
2021/11/26 09:38:13;;;;;;;4.45;2.42;;;;;;;12.81;68.64;100960.59;4822545;29;104140;-53
2021/11/26 09:40:40;;;;;;;2.95;2.20;;;;;;;12.82;68.68;100960.31;4819453;29;102379;-54
2021/11/26 09:43:07;;;;;;;4.75;2.20;;;;;;;12.82;68.78;100956.75;4820901;29;102312;-53
2021/11/26 09:45:34;;;;;;;4.57;2.03;;;;;;;12.81;68.54;100947.75;4822873;29;102520;-53
2021/11/26 09:48:02;;;;;;;2.58;1.90;;;;;;;12.82;68.67;100949.38;4820285;29;102711;-53
2021/11/26 09:50:32;;;;;;;2.97;1.90;;;;;;;12.82;68.33;100951.28;4822596;29;102416;-53
2021/11/26 09:53:12;;;;;;;4.40;1.95;;;;;;;12.81;68.50;100942.28;4808693;29;102563;-53
2021/11/26 09:55:43;;;;;;;3.00;2.03;;;;;;;12.83;68.52;100955.66;4822934;29;102655;-54
2021/11/26 09:58:11;;;;;;;2.38;1.77;;;;;;;12.82;68.44;100946.66;4822181;29;104560;-53
2021/11/26 10:00:38;;;;;;;2.85;1.92;;;;;;;12.82;68.42;100943.09;4822073;29;102265;-53
2021/11/26 10:03:06;;;;;;;2.58;1.95;;;;;;;12.82;68.54;100923.97;4822285;29;102354;-53
2021/11/26 10:05:34;;;;;;;3.78;2.08;;;;;;;12.82;68.52;100923.97;4819802;29;102236;-53
2021/11/26 10:08:01;;;;;;;3.38;1.92;;;;;;;12.82;68.45;100918.53;4820541;29;103945;-53
2021/11/26 10:10:34;;;;;;;1.52;1.42;;;;;;;12.83;68.44;100911.94;4821957;29;102723;-53
2021/11/26 10:13:03;;;;;;;2.47;1.77;;;;;;;12.83;68.46;100911.94;4822908;29;102129;-53
2021/11/26 10:15:33;;;;;;;2.40;1.85;;;;;;;12.83;68.50;100915.50;4829412;29;102637;-53
2021/11/26 10:18:11;;;;;;;;;;;;;;;12.83;68.99;100906.50;4828604;29;103951;-53
2021/11/26 10:20:50;;;;;;;3.83;1.80;;;;;;;12.82;68.37;100900.22;4821792;29;102412;-53
2021/11/26 10:23:18;;;;;;;2.75;1.95;;;;;;;12.84;68.77;100886.25;4819032;29;102406;-52
2021/11/26 10:25:45;;;;;;;2.78;1.77;;;;;;;12.84;68.47;100886.25;4818959;29;102548;-53
2021/11/26 10:28:12;;;;;;;4.90;1.80;;;;;;;12.83;68.64;100876.44;4820324;29;104313;-53
2021/11/26 10:30:41;;;;;;;3.22;1.90;;;;;;;12.83;68.59;100874.53;4817748;29;102264;-53
2021/11/26 10:33:10;;;;;;;;;;;;;;;12.83;68.49;100873.72;4819870;29;102167;-53
2021/11/26 10:35:41;;;;;;;2.53;2.00;;;;;;;12.83;68.51;100877.25;4819521;29;103061;-53
2021/11/26 10:38:09;;;;;;;3.13;1.92;;;;;;;12.83;68.41;100870.97;4815607;29;103599;-53
2021/11/26 10:40:37;;;;;;;3.28;1.90;;;;;;;12.83;68.30;100873.72;4813142;29;102073;-53
2021/11/26 10:43:10;;;;;;;3.40;1.88;;;;;;;12.83;68.21;100870.97;4810347;29;102672;-53
2021/11/26 10:46:14;;;;;;;3.28;2.20;;;;;;;12.82;68.37;100853.78;4812838;29;103713;-53
2021/11/26 10:49:21;;;;;;;2.75;1.80;;;;;;;12.83;68.45;100862.78;4813508;29;105315;-53
2021/11/26 10:51:35;;;;;;;3.33;2.08;;;;;;;12.83;68.50;100870.97;4809136;29;103259;-53
2021/11/26 10:59:34;;;;;;;2.03;1.73;;;;;;;12.83;68.53;100863.59;4821140;29;104666;-53
2021/11/26 11:02:00;;;;;;;4.10;1.98;;;;;;;12.83;68.41;100865.53;4824016;29;102274;-53
2021/11/26 11:04:28;;;;;;;3.17;2.15;;;;;;;12.83;68.50;100862.78;4827211;29;102200;-53
2021/11/26 11:07:01;;;;;;;2.90;2.10;;;;;;;12.84;68.35;100858.94;4815200;29;102555;-53
2021/11/26 11:09:38;;;;;;;3.10;1.90;;;;;;;12.84;68.48;100853.50;4808323;29;103820;-53
2021/11/26 11:12:05;;;;;;;2.17;1.85;;;;;;;12.84;68.45;100853.50;4817416;29;102109;-53
2021/11/26 11:14:32;;;;;;;3.25;2.00;;;;;;;12.83;68.42;100838.22;4813344;29;102127;-52
2021/11/26 11:16:58;;;;;;;3.00;2.05;;;;;;;12.84;68.69;100842.56;4814649;29;102382;-52
2021/11/26 11:19:25;;;;;;;2.40;1.77;;;;;;;12.85;68.26;100834.09;4811060;29;104164;-52
2021/11/26 11:21:54;;;;;;;1.98;1.63;;;;;;;12.83;68.44;100819.09;4820899;29;102153;-53
2021/11/26 11:24:23;;;;;;;4.20;2.20;;;;;;;12.84;68.55;100815.25;4821528;29;102141;-52
2021/11/26 11:26:51;;;;;;;2.15;1.95;;;;;;;12.84;68.52;100807.91;4817011;29;102247;-52